sensor_id;sensor_type;location;lat;lon;timestamp;temperature;humidity
19342;DHT22;9807;48.258;12.690;2022-07-22T00:01:29;23.50;99.90
19342;DHT22;9807;48.258;12.690;2022-07-22T00:03:55;23.50;99.90
19342;DHT22;9807;48.258;12.690;2022-07-22T00:06:21;23.50;99.90
19342;DHT22;9807;48.258;12.690;2022-07-22T00:08:46;23.50;99.90
19342;DHT22;9807;48.258;12.690;2022-07-22T00:11:12;23.50;99.90
19342;DHT22;9807;48.258;12.690;2022-07-22T00:13:38;23.50;99.90
19342;DHT22;9807;48.258;12.690;2022-07-22T00:16:05;23.40;99.90
19342;DHT22;9807;48.258;12.690;2022-07-22T00:18:31;23.40;99.90
19342;DHT22;9807;48.258;12.690;2022-07-22T00:20:56;23.30;99.90
19342;DHT22;9807;48.258;12.690;2022-07-22T00:23:22;23.30;99.90
19342;DHT22;9807;48.258;12.690;2022-07-22T00:25:48;23.30;99.90
19342;DHT22;9807;48.258;12.690;2022-07-22T00:28:14;23.30;99.90
19342;DHT22;9807;48.258;12.690;2022-07-22T00:30:39;23.30;99.90
19342;DHT22;9807;48.258;12.690;2022-07-22T00:33:05;23.30;99.90
19342;DHT22;9807;48.258;12.690;2022-07-22T00:35:31;23.30;99.90
19342;DHT22;9807;48.258;12.690;2022-07-22T00:37:57;23.30;99.90
19342;DHT22;9807;48.258;12.690;2022-07-22T00:40:22;23.30;99.90
19342;DHT22;9807;48.258;12.690;2022-07-22T00:42:48;23.20;99.90
19342;DHT22;9807;48.258;12.690;2022-07-22T00:45:15;23.20;99.90
19342;DHT22;9807;48.258;12.690;2022-07-22T00:47:40;23.20;99.90
19342;DHT22;9807;48.258;12.690;2022-07-22T00:50:06;23.20;99.90
19342;DHT22;9807;48.258;12.690;2022-07-22T00:52:33;23.10;99.90
19342;DHT22;9807;48.258;12.690;2022-07-22T00:55:00;23.10;99.90
19342;DHT22;9807;48.258;12.690;2022-07-22T00:57:27;23.20;99.90
19342;DHT22;9807;48.258;12.690;2022-07-22T00:59:53;23.20;99.90
19342;DHT22;9807;48.258;12.690;2022-07-22T01:02:19;23.10;99.90
19342;DHT22;9807;48.258;12.690;2022-07-22T01:04:45;23.10;99.90
19342;DHT22;9807;48.258;12.690;2022-07-22T01:07:10;23.10;99.90
19342;DHT22;9807;48.258;12.690;2022-07-22T01:09:37;23.10;99.90
19342;DHT22;9807;48.258;12.690;2022-07-22T01:12:03;23.10;99.90
19342;DHT22;9807;48.258;12.690;2022-07-22T01:14:28;23.10;99.90
19342;DHT22;9807;48.258;12.690;2022-07-22T01:16:55;23.10;99.90
19342;DHT22;9807;48.258;12.690;2022-07-22T01:19:20;23.10;99.90
19342;DHT22;9807;48.258;12.690;2022-07-22T01:21:46;23.00;99.90
19342;DHT22;9807;48.258;12.690;2022-07-22T01:24:12;23.00;99.90
19342;DHT22;9807;48.258;12.690;2022-07-22T01:26:38;23.00;99.90
19342;DHT22;9807;48.258;12.690;2022-07-22T01:29:03;23.00;99.90
19342;DHT22;9807;48.258;12.690;2022-07-22T01:31:29;23.00;99.90
19342;DHT22;9807;48.258;12.690;2022-07-22T01:33:55;23.00;99.90
19342;DHT22;9807;48.258;12.690;2022-07-22T01:36:21;23.00;99.90
19342;DHT22;9807;48.258;12.690;2022-07-22T01:38:47;23.10;99.90
19342;DHT22;9807;48.258;12.690;2022-07-22T01:41:13;23.10;99.90
19342;DHT22;9807;48.258;12.690;2022-07-22T01:43:39;23.00;99.90
19342;DHT22;9807;48.258;12.690;2022-07-22T01:46:05;22.90;99.90
19342;DHT22;9807;48.258;12.690;2022-07-22T01:48:31;22.90;99.90
19342;DHT22;9807;48.258;12.690;2022-07-22T01:50:57;22.90;99.90
19342;DHT22;9807;48.258;12.690;2022-07-22T01:53:23;23.00;99.90
19342;DHT22;9807;48.258;12.690;2022-07-22T01:55:49;23.00;99.90
19342;DHT22;9807;48.258;12.690;2022-07-22T01:58:15;23.10;99.90
19342;DHT22;9807;48.258;12.690;2022-07-22T02:00:41;23.00;99.90
19342;DHT22;9807;48.258;12.690;2022-07-22T02:03:07;23.00;99.90
19342;DHT22;9807;48.258;12.690;2022-07-22T02:05:33;23.00;99.90
19342;DHT22;9807;48.258;12.690;2022-07-22T02:08:00;23.00;99.90
19342;DHT22;9807;48.258;12.690;2022-07-22T02:10:26;23.00;99.90
19342;DHT22;9807;48.258;12.690;2022-07-22T02:12:56;23.00;99.90
19342;DHT22;9807;48.258;12.690;2022-07-22T02:15:22;23.00;99.90
19342;DHT22;9807;48.258;12.690;2022-07-22T02:17:48;22.90;99.90
19342;DHT22;9807;48.258;12.690;2022-07-22T02:20:14;22.90;99.90
19342;DHT22;9807;48.258;12.690;2022-07-22T02:22:40;22.90;99.90
19342;DHT22;9807;48.258;12.690;2022-07-22T02:25:06;22.90;99.90
19342;DHT22;9807;48.258;12.690;2022-07-22T02:27:32;22.90;99.90
19342;DHT22;9807;48.258;12.690;2022-07-22T02:29:58;22.90;99.90
19342;DHT22;9807;48.258;12.690;2022-07-22T02:32:24;22.90;99.90
19342;DHT22;9807;48.258;12.690;2022-07-22T02:34:49;22.80;99.90
19342;DHT22;9807;48.258;12.690;2022-07-22T02:37:15;22.80;99.90
19342;DHT22;9807;48.258;12.690;2022-07-22T02:39:41;22.80;99.90
19342;DHT22;9807;48.258;12.690;2022-07-22T02:42:07;22.80;99.90
19342;DHT22;9807;48.258;12.690;2022-07-22T02:44:32;22.80;99.90
19342;DHT22;9807;48.258;12.690;2022-07-22T02:46:58;22.80;99.90
19342;DHT22;9807;48.258;12.690;2022-07-22T02:49:24;22.80;99.90
19342;DHT22;9807;48.258;12.690;2022-07-22T02:51:50;22.70;99.90
19342;DHT22;9807;48.258;12.690;2022-07-22T02:54:15;22.70;99.90
19342;DHT22;9807;48.258;12.690;2022-07-22T02:56:41;22.70;99.90
19342;DHT22;9807;48.258;12.690;2022-07-22T02:59:07;22.70;99.90
19342;DHT22;9807;48.258;12.690;2022-07-22T03:01:33;22.70;99.90
19342;DHT22;9807;48.258;12.690;2022-07-22T03:03:58;22.70;99.90
19342;DHT22;9807;48.258;12.690;2022-07-22T03:06:27;22.70;99.90
19342;DHT22;9807;48.258;12.690;2022-07-22T03:08:53;22.70;99.90
19342;DHT22;9807;48.258;12.690;2022-07-22T03:11:19;22.70;99.90
19342;DHT22;9807;48.258;12.690;2022-07-22T03:13:45;22.70;99.90
19342;DHT22;9807;48.258;12.690;2022-07-22T03:16:11;22.60;99.90
19342;DHT22;9807;48.258;12.690;2022-07-22T03:18:39;22.60;99.90
19342;DHT22;9807;48.258;12.690;2022-07-22T03:21:05;22.60;99.90
19342;DHT22;9807;48.258;12.690;2022-07-22T03:23:30;22.60;99.90
19342;DHT22;9807;48.258;12.690;2022-07-22T03:25:56;22.60;99.90
19342;DHT22;9807;48.258;12.690;2022-07-22T03:28:22;22.60;99.90
19342;DHT22;9807;48.258;12.690;2022-07-22T03:30:48;22.60;99.90
19342;DHT22;9807;48.258;12.690;2022-07-22T03:33:14;22.50;99.90
19342;DHT22;9807;48.258;12.690;2022-07-22T03:35:40;22.50;99.90
19342;DHT22;9807;48.258;12.690;2022-07-22T03:38:06;22.50;99.90
19342;DHT22;9807;48.258;12.690;2022-07-22T03:40:32;22.50;99.90
19342;DHT22;9807;48.258;12.690;2022-07-22T03:42:58;22.40;99.90
19342;DHT22;9807;48.258;12.690;2022-07-22T03:45:24;22.40;99.90
19342;DHT22;9807;48.258;12.690;2022-07-22T03:47:50;22.40;99.90
19342;DHT22;9807;48.258;12.690;2022-07-22T03:50:16;22.40;99.90
19342;DHT22;9807;48.258;12.690;2022-07-22T03:52:42;22.40;99.90
19342;DHT22;9807;48.258;12.690;2022-07-22T03:55:08;22.40;99.90
19342;DHT22;9807;48.258;12.690;2022-07-22T03:57:34;22.40;99.90
19342;DHT22;9807;48.258;12.690;2022-07-22T03:59:59;22.30;99.90
19342;DHT22;9807;48.258;12.690;2022-07-22T04:02:25;22.40;99.90
19342;DHT22;9807;48.258;12.690;2022-07-22T04:04:51;22.40;99.90
19342;DHT22;9807;48.258;12.690;2022-07-22T04:07:16;22.40;99.90
19342;DHT22;9807;48.258;12.690;2022-07-22T04:09:42;22.40;99.90
19342;DHT22;9807;48.258;12.690;2022-07-22T04:12:08;22.40;99.90
19342;DHT22;9807;48.258;12.690;2022-07-22T04:14:33;22.40;99.90
19342;DHT22;9807;48.258;12.690;2022-07-22T04:16:59;22.40;99.90
19342;DHT22;9807;48.258;12.690;2022-07-22T04:19:25;22.40;99.90
19342;DHT22;9807;48.258;12.690;2022-07-22T04:21:50;22.40;99.90
19342;DHT22;9807;48.258;12.690;2022-07-22T04:24:16;22.40;99.90
19342;DHT22;9807;48.258;12.690;2022-07-22T04:26:42;22.40;99.90
19342;DHT22;9807;48.258;12.690;2022-07-22T04:29:11;22.40;99.90
19342;DHT22;9807;48.258;12.690;2022-07-22T04:31:36;22.40;99.90
19342;DHT22;9807;48.258;12.690;2022-07-22T04:34:02;22.40;99.90
19342;DHT22;9807;48.258;12.690;2022-07-22T04:36:28;22.40;99.90
19342;DHT22;9807;48.258;12.690;2022-07-22T04:38:53;22.40;99.90
19342;DHT22;9807;48.258;12.690;2022-07-22T04:41:19;22.40;99.90
19342;DHT22;9807;48.258;12.690;2022-07-22T04:43:45;22.40;99.90
19342;DHT22;9807;48.258;12.690;2022-07-22T04:46:11;22.50;99.90
19342;DHT22;9807;48.258;12.690;2022-07-22T04:48:37;22.50;99.90
19342;DHT22;9807;48.258;12.690;2022-07-22T04:51:05;22.60;99.90
19342;DHT22;9807;48.258;12.690;2022-07-22T04:53:31;22.60;99.90
19342;DHT22;9807;48.258;12.690;2022-07-22T04:55:57;22.60;99.90
19342;DHT22;9807;48.258;12.690;2022-07-22T04:58:23;22.60;99.90
19342;DHT22;9807;48.258;12.690;2022-07-22T05:00:48;22.60;99.90
19342;DHT22;9807;48.258;12.690;2022-07-22T05:03:14;22.60;99.90
19342;DHT22;9807;48.258;12.690;2022-07-22T05:05:40;22.60;99.90
19342;DHT22;9807;48.258;12.690;2022-07-22T05:08:06;22.70;99.90
19342;DHT22;9807;48.258;12.690;2022-07-22T05:10:31;22.70;99.90
19342;DHT22;9807;48.258;12.690;2022-07-22T05:12:58;22.70;99.90
19342;DHT22;9807;48.258;12.690;2022-07-22T05:15:24;22.80;99.90
19342;DHT22;9807;48.258;12.690;2022-07-22T05:17:50;22.80;99.90
19342;DHT22;9807;48.258;12.690;2022-07-22T05:20:16;22.60;99.90
19342;DHT22;9807;48.258;12.690;2022-07-22T05:22:42;22.30;99.90
19342;DHT22;9807;48.258;12.690;2022-07-22T05:25:08;22.30;99.90
19342;DHT22;9807;48.258;12.690;2022-07-22T05:27:34;22.60;99.90
19342;DHT22;9807;48.258;12.690;2022-07-22T05:30:00;22.60;99.90
19342;DHT22;9807;48.258;12.690;2022-07-22T05:32:26;22.70;99.90
19342;DHT22;9807;48.258;12.690;2022-07-22T05:34:51;22.80;99.90
19342;DHT22;9807;48.258;12.690;2022-07-22T05:37:17;22.80;99.90
19342;DHT22;9807;48.258;12.690;2022-07-22T05:39:43;22.90;99.90
19342;DHT22;9807;48.258;12.690;2022-07-22T05:42:09;23.10;99.90
19342;DHT22;9807;48.258;12.690;2022-07-22T05:44:35;23.20;99.90
19342;DHT22;9807;48.258;12.690;2022-07-22T05:47:01;23.30;99.90
19342;DHT22;9807;48.258;12.690;2022-07-22T05:49:29;23.50;99.90
19342;DHT22;9807;48.258;12.690;2022-07-22T05:51:55;23.60;99.90
19342;DHT22;9807;48.258;12.690;2022-07-22T05:54:25;23.70;99.90
19342;DHT22;9807;48.258;12.690;2022-07-22T05:56:51;23.80;99.90
19342;DHT22;9807;48.258;12.690;2022-07-22T05:59:17;23.40;99.90
19342;DHT22;9807;48.258;12.690;2022-07-22T06:01:42;23.00;99.90
19342;DHT22;9807;48.258;12.690;2022-07-22T06:04:08;23.10;99.90
19342;DHT22;9807;48.258;12.690;2022-07-22T06:06:34;23.40;99.90
19342;DHT22;9807;48.258;12.690;2022-07-22T06:09:00;24.00;99.90
19342;DHT22;9807;48.258;12.690;2022-07-22T06:11:26;24.40;99.90
19342;DHT22;9807;48.258;12.690;2022-07-22T06:13:52;24.10;99.90
19342;DHT22;9807;48.258;12.690;2022-07-22T06:16:19;24.30;99.90
19342;DHT22;9807;48.258;12.690;2022-07-22T06:18:44;24.80;99.90
19342;DHT22;9807;48.258;12.690;2022-07-22T06:21:10;25.20;99.90
19342;DHT22;9807;48.258;12.690;2022-07-22T06:23:36;25.50;99.90
19342;DHT22;9807;48.258;12.690;2022-07-22T06:26:05;25.50;99.90
19342;DHT22;9807;48.258;12.690;2022-07-22T06:28:31;25.50;99.90
19342;DHT22;9807;48.258;12.690;2022-07-22T06:30:57;25.80;99.90
19342;DHT22;9807;48.258;12.690;2022-07-22T06:33:23;25.70;99.90
19342;DHT22;9807;48.258;12.690;2022-07-22T06:35:48;25.10;99.90
19342;DHT22;9807;48.258;12.690;2022-07-22T06:38:14;25.00;99.90
19342;DHT22;9807;48.258;12.690;2022-07-22T06:40:40;25.00;99.90
19342;DHT22;9807;48.258;12.690;2022-07-22T06:43:06;25.30;99.90
19342;DHT22;9807;48.258;12.690;2022-07-22T06:45:32;25.20;99.90
19342;DHT22;9807;48.258;12.690;2022-07-22T06:47:58;24.90;99.90
19342;DHT22;9807;48.258;12.690;2022-07-22T06:50:23;24.90;99.90
19342;DHT22;9807;48.258;12.690;2022-07-22T06:52:50;25.20;99.90
19342;DHT22;9807;48.258;12.690;2022-07-22T06:55:16;25.70;99.90
19342;DHT22;9807;48.258;12.690;2022-07-22T06:57:41;26.10;99.90
19342;DHT22;9807;48.258;12.690;2022-07-22T07:00:07;26.20;99.90
19342;DHT22;9807;48.258;12.690;2022-07-22T07:02:35;26.10;99.90
19342;DHT22;9807;48.258;12.690;2022-07-22T07:05:01;26.40;99.90
19342;DHT22;9807;48.258;12.690;2022-07-22T07:07:29;26.80;99.90
19342;DHT22;9807;48.258;12.690;2022-07-22T07:09:55;27.50;99.90
19342;DHT22;9807;48.258;12.690;2022-07-22T07:12:21;28.00;99.90
19342;DHT22;9807;48.258;12.690;2022-07-22T07:14:47;28.20;99.90
19342;DHT22;9807;48.258;12.690;2022-07-22T07:17:12;28.10;99.90
19342;DHT22;9807;48.258;12.690;2022-07-22T07:19:38;28.10;99.90
19342;DHT22;9807;48.258;12.690;2022-07-22T07:22:04;28.10;99.90
19342;DHT22;9807;48.258;12.690;2022-07-22T07:24:30;28.30;99.90
19342;DHT22;9807;48.258;12.690;2022-07-22T07:26:55;28.00;99.90
19342;DHT22;9807;48.258;12.690;2022-07-22T07:29:21;28.10;99.90
19342;DHT22;9807;48.258;12.690;2022-07-22T07:31:48;28.70;99.90
19342;DHT22;9807;48.258;12.690;2022-07-22T07:34:13;28.70;99.90
19342;DHT22;9807;48.258;12.690;2022-07-22T07:36:39;28.60;99.90
19342;DHT22;9807;48.258;12.690;2022-07-22T07:39:05;28.70;99.90
19342;DHT22;9807;48.258;12.690;2022-07-22T07:41:31;29.50;99.90
19342;DHT22;9807;48.258;12.690;2022-07-22T07:43:57;29.50;99.90
19342;DHT22;9807;48.258;12.690;2022-07-22T07:46:23;29.00;99.90
19342;DHT22;9807;48.258;12.690;2022-07-22T07:48:49;28.80;99.90
19342;DHT22;9807;48.258;12.690;2022-07-22T07:51:14;29.40;99.90
19342;DHT22;9807;48.258;12.690;2022-07-22T07:53:40;29.50;99.90
19342;DHT22;9807;48.258;12.690;2022-07-22T07:56:06;28.80;99.90
19342;DHT22;9807;48.258;12.690;2022-07-22T07:58:32;28.80;99.90
19342;DHT22;9807;48.258;12.690;2022-07-22T08:00:58;29.10;99.90
19342;DHT22;9807;48.258;12.690;2022-07-22T08:03:24;29.10;99.90
19342;DHT22;9807;48.258;12.690;2022-07-22T08:05:49;28.70;99.90
19342;DHT22;9807;48.258;12.690;2022-07-22T08:08:15;28.80;99.90
19342;DHT22;9807;48.258;12.690;2022-07-22T08:10:42;29.20;99.90
19342;DHT22;9807;48.258;12.690;2022-07-22T08:13:07;29.90;99.90
19342;DHT22;9807;48.258;12.690;2022-07-22T08:15:33;30.80;99.90
19342;DHT22;9807;48.258;12.690;2022-07-22T08:17:59;31.60;99.90
19342;DHT22;9807;48.258;12.690;2022-07-22T08:20:26;32.30;99.90
19342;DHT22;9807;48.258;12.690;2022-07-22T08:22:53;32.70;99.90
19342;DHT22;9807;48.258;12.690;2022-07-22T08:25:19;32.30;99.90
19342;DHT22;9807;48.258;12.690;2022-07-22T08:27:46;31.70;99.90
19342;DHT22;9807;48.258;12.690;2022-07-22T08:30:12;32.10;99.90
19342;DHT22;9807;48.258;12.690;2022-07-22T08:32:38;32.80;99.90
19342;DHT22;9807;48.258;12.690;2022-07-22T08:35:04;33.20;99.90
19342;DHT22;9807;48.258;12.690;2022-07-22T08:37:30;33.10;99.90
19342;DHT22;9807;48.258;12.690;2022-07-22T08:39:56;33.10;99.90
19342;DHT22;9807;48.258;12.690;2022-07-22T08:42:24;32.30;99.90
19342;DHT22;9807;48.258;12.690;2022-07-22T08:44:52;31.90;99.90
19342;DHT22;9807;48.258;12.690;2022-07-22T08:47:22;32.40;99.90
19342;DHT22;9807;48.258;12.690;2022-07-22T08:49:48;32.70;99.90
19342;DHT22;9807;48.258;12.690;2022-07-22T08:52:13;33.20;99.90
19342;DHT22;9807;48.258;12.690;2022-07-22T08:54:39;33.70;99.90
19342;DHT22;9807;48.258;12.690;2022-07-22T08:57:05;34.20;99.90
19342;DHT22;9807;48.258;12.690;2022-07-22T08:59:31;33.60;99.90
19342;DHT22;9807;48.258;12.690;2022-07-22T09:02:08;33.40;99.90
19342;DHT22;9807;48.258;12.690;2022-07-22T09:04:52;33.40;99.90
19342;DHT22;9807;48.258;12.690;2022-07-22T09:07:48;33.80;99.90
19342;DHT22;9807;48.258;12.690;2022-07-22T09:10:16;34.20;99.90
19342;DHT22;9807;48.258;12.690;2022-07-22T09:12:57;34.50;99.90
19342;DHT22;9807;48.258;12.690;2022-07-22T09:15:30;34.60;99.90
19342;DHT22;9807;48.258;12.690;2022-07-22T09:17:57;34.70;99.90
19342;DHT22;9807;48.258;12.690;2022-07-22T09:20:24;34.80;99.90
19342;DHT22;9807;48.258;12.690;2022-07-22T09:22:51;34.80;99.90
19342;DHT22;9807;48.258;12.690;2022-07-22T09:25:31;34.80;99.90
19342;DHT22;9807;48.258;12.690;2022-07-22T09:30:40;34.40;99.90
19342;DHT22;9807;48.258;12.690;2022-07-22T09:33:07;34.60;99.90
19342;DHT22;9807;48.258;12.690;2022-07-22T09:35:34;34.60;99.90
19342;DHT22;9807;48.258;12.690;2022-07-22T09:38:02;34.40;99.90
19342;DHT22;9807;48.258;12.690;2022-07-22T09:40:34;34.00;99.90
19342;DHT22;9807;48.258;12.690;2022-07-22T09:43:14;34.00;99.90
19342;DHT22;9807;48.258;12.690;2022-07-22T09:45:53;34.30;99.90
19342;DHT22;9807;48.258;12.690;2022-07-22T09:48:21;34.10;99.90
19342;DHT22;9807;48.258;12.690;2022-07-22T09:50:48;34.20;99.90
19342;DHT22;9807;48.258;12.690;2022-07-22T09:53:15;34.10;99.90
19342;DHT22;9807;48.258;12.690;2022-07-22T09:55:42;34.20;99.90
19342;DHT22;9807;48.258;12.690;2022-07-22T09:58:08;34.20;99.90
19342;DHT22;9807;48.258;12.690;2022-07-22T10:00:36;34.20;99.90
19342;DHT22;9807;48.258;12.690;2022-07-22T10:03:04;34.20;99.90
19342;DHT22;9807;48.258;12.690;2022-07-22T10:05:32;34.10;99.90
19342;DHT22;9807;48.258;12.690;2022-07-22T10:08:00;34.00;99.90
19342;DHT22;9807;48.258;12.690;2022-07-22T10:10:28;34.00;99.90
19342;DHT22;9807;48.258;12.690;2022-07-22T10:12:57;33.30;99.90
19342;DHT22;9807;48.258;12.690;2022-07-22T10:15:24;32.90;99.90
19342;DHT22;9807;48.258;12.690;2022-07-22T10:17:52;32.90;99.90
19342;DHT22;9807;48.258;12.690;2022-07-22T10:20:24;33.10;99.90
19342;DHT22;9807;48.258;12.690;2022-07-22T10:23:01;33.10;99.90
19342;DHT22;9807;48.258;12.690;2022-07-22T10:25:47;33.10;99.90
19342;DHT22;9807;48.258;12.690;2022-07-22T10:28:41;32.40;99.90
19342;DHT22;9807;48.258;12.690;2022-07-22T10:33:49;32.30;99.90
19342;DHT22;9807;48.258;12.690;2022-07-22T10:36:36;32.40;99.90
19342;DHT22;9807;48.258;12.690;2022-07-22T10:39:13;32.60;99.90
19342;DHT22;9807;48.258;12.690;2022-07-22T10:41:43;32.70;99.90
19342;DHT22;9807;48.258;12.690;2022-07-22T10:44:10;32.70;99.90
19342;DHT22;9807;48.258;12.690;2022-07-22T10:46:49;32.70;99.90
19342;DHT22;9807;48.258;12.690;2022-07-22T10:49:18;32.80;99.90
19342;DHT22;9807;48.258;12.690;2022-07-22T10:52:12;32.70;99.90
19342;DHT22;9807;48.258;12.690;2022-07-22T10:55:21;32.80;99.90
19342;DHT22;9807;48.258;12.690;2022-07-22T10:57:47;32.60;99.90
19342;DHT22;9807;48.258;12.690;2022-07-22T11:00:14;32.60;99.90
19342;DHT22;9807;48.258;12.690;2022-07-22T11:02:41;32.50;99.90
19342;DHT22;9807;48.258;12.690;2022-07-22T11:05:08;32.50;99.90
19342;DHT22;9807;48.258;12.690;2022-07-22T11:07:40;32.30;99.90
19342;DHT22;9807;48.258;12.690;2022-07-22T11:10:10;31.90;99.90
19342;DHT22;9807;48.258;12.690;2022-07-22T11:12:39;31.10;99.90
19342;DHT22;9807;48.258;12.690;2022-07-22T11:15:06;30.80;99.90
19342;DHT22;9807;48.258;12.690;2022-07-22T11:17:32;31.00;99.90
19342;DHT22;9807;48.258;12.690;2022-07-22T11:20:04;31.30;99.90
19342;DHT22;9807;48.258;12.690;2022-07-22T11:22:31;31.50;99.90
19342;DHT22;9807;48.258;12.690;2022-07-22T11:25:02;31.70;99.90
19342;DHT22;9807;48.258;12.690;2022-07-22T11:27:28;31.90;99.90
19342;DHT22;9807;48.258;12.690;2022-07-22T11:29:55;31.90;99.90
19342;DHT22;9807;48.258;12.690;2022-07-22T11:32:22;31.50;99.90
19342;DHT22;9807;48.258;12.690;2022-07-22T11:34:49;31.30;99.90
19342;DHT22;9807;48.258;12.690;2022-07-22T11:37:16;31.40;99.90
19342;DHT22;9807;48.258;12.690;2022-07-22T11:39:43;31.40;99.90
19342;DHT22;9807;48.258;12.690;2022-07-22T11:42:09;31.50;99.90
19342;DHT22;9807;48.258;12.690;2022-07-22T11:44:37;31.70;99.90
19342;DHT22;9807;48.258;12.690;2022-07-22T11:47:04;31.80;99.90
19342;DHT22;9807;48.258;12.690;2022-07-22T11:49:32;31.90;99.90
19342;DHT22;9807;48.258;12.690;2022-07-22T11:52:03;32.00;99.90
19342;DHT22;9807;48.258;12.690;2022-07-22T11:54:29;31.90;99.90
19342;DHT22;9807;48.258;12.690;2022-07-22T11:56:55;31.60;99.90
19342;DHT22;9807;48.258;12.690;2022-07-22T11:59:21;31.60;99.90
19342;DHT22;9807;48.258;12.690;2022-07-22T12:01:48;31.70;99.90
19342;DHT22;9807;48.258;12.690;2022-07-22T12:04:25;31.50;99.90
19342;DHT22;9807;48.258;12.690;2022-07-22T12:06:53;31.20;99.90
19342;DHT22;9807;48.258;12.690;2022-07-22T12:11:53;31.30;99.90
19342;DHT22;9807;48.258;12.690;2022-07-22T12:14:27;31.40;99.90
19342;DHT22;9807;48.258;12.690;2022-07-22T12:17:06;31.40;99.90
19342;DHT22;9807;48.258;12.690;2022-07-22T12:19:33;31.50;99.90
19342;DHT22;9807;48.258;12.690;2022-07-22T12:22:05;31.50;99.90
19342;DHT22;9807;48.258;12.690;2022-07-22T12:24:42;31.40;99.90
19342;DHT22;9807;48.258;12.690;2022-07-22T12:27:16;31.50;99.90
19342;DHT22;9807;48.258;12.690;2022-07-22T12:29:46;31.60;99.90
19342;DHT22;9807;48.258;12.690;2022-07-22T12:32:28;31.70;99.90
19342;DHT22;9807;48.258;12.690;2022-07-22T12:37:33;31.70;99.90
19342;DHT22;9807;48.258;12.690;2022-07-22T12:40:06;31.70;99.90
19342;DHT22;9807;48.258;12.690;2022-07-22T12:42:59;31.80;99.90
19342;DHT22;9807;48.258;12.690;2022-07-22T12:45:26;31.70;99.90
19342;DHT22;9807;48.258;12.690;2022-07-22T12:47:53;31.80;99.90
19342;DHT22;9807;48.258;12.690;2022-07-22T12:50:28;31.70;99.90
19342;DHT22;9807;48.258;12.690;2022-07-22T12:53:05;31.90;99.90
19342;DHT22;9807;48.258;12.690;2022-07-22T12:55:36;31.90;99.90
19342;DHT22;9807;48.258;12.690;2022-07-22T12:58:03;31.90;99.90
19342;DHT22;9807;48.258;12.690;2022-07-22T13:00:33;32.00;99.90
19342;DHT22;9807;48.258;12.690;2022-07-22T13:02:59;32.10;99.90
19342;DHT22;9807;48.258;12.690;2022-07-22T13:05:25;32.00;99.90
19342;DHT22;9807;48.258;12.690;2022-07-22T13:07:52;31.90;99.90
19342;DHT22;9807;48.258;12.690;2022-07-22T13:10:22;31.90;99.90
19342;DHT22;9807;48.258;12.690;2022-07-22T13:12:49;32.00;99.90
19342;DHT22;9807;48.258;12.690;2022-07-22T13:15:15;32.10;99.90
19342;DHT22;9807;48.258;12.690;2022-07-22T13:17:41;32.10;99.90
19342;DHT22;9807;48.258;12.690;2022-07-22T13:20:09;32.20;99.90
19342;DHT22;9807;48.258;12.690;2022-07-22T13:22:35;32.20;99.90
19342;DHT22;9807;48.258;12.690;2022-07-22T13:25:01;32.30;99.90
19342;DHT22;9807;48.258;12.690;2022-07-22T13:27:30;32.30;99.90
19342;DHT22;9807;48.258;12.690;2022-07-22T13:29:56;32.40;99.90
19342;DHT22;9807;48.258;12.690;2022-07-22T13:32:21;32.30;99.90
19342;DHT22;9807;48.258;12.690;2022-07-22T13:34:47;32.20;99.90
19342;DHT22;9807;48.258;12.690;2022-07-22T13:37:13;32.20;99.90
19342;DHT22;9807;48.258;12.690;2022-07-22T13:39:39;32.20;99.90
19342;DHT22;9807;48.258;12.690;2022-07-22T13:42:06;32.20;99.90
19342;DHT22;9807;48.258;12.690;2022-07-22T13:44:32;32.20;99.90
19342;DHT22;9807;48.258;12.690;2022-07-22T13:47:00;32.20;99.90
19342;DHT22;9807;48.258;12.690;2022-07-22T13:49:26;32.30;99.90
19342;DHT22;9807;48.258;12.690;2022-07-22T13:51:52;32.40;99.90
19342;DHT22;9807;48.258;12.690;2022-07-22T13:54:19;32.50;99.90
19342;DHT22;9807;48.258;12.690;2022-07-22T13:56:46;32.40;99.90
19342;DHT22;9807;48.258;12.690;2022-07-22T13:59:15;32.30;99.90
19342;DHT22;9807;48.258;12.690;2022-07-22T14:01:41;32.30;99.90
19342;DHT22;9807;48.258;12.690;2022-07-22T14:04:07;32.30;99.90
19342;DHT22;9807;48.258;12.690;2022-07-22T14:06:34;32.50;99.90
19342;DHT22;9807;48.258;12.690;2022-07-22T14:09:00;32.60;99.90
19342;DHT22;9807;48.258;12.690;2022-07-22T14:11:26;32.50;99.90
19342;DHT22;9807;48.258;12.690;2022-07-22T14:13:52;32.30;99.90
19342;DHT22;9807;48.258;12.690;2022-07-22T14:16:17;32.40;99.90
19342;DHT22;9807;48.258;12.690;2022-07-22T14:19:03;32.70;99.90
19342;DHT22;9807;48.258;12.690;2022-07-22T14:21:30;32.80;99.90
19342;DHT22;9807;48.258;12.690;2022-07-22T14:23:55;32.70;99.90
19342;DHT22;9807;48.258;12.690;2022-07-22T14:26:21;32.60;99.90
19342;DHT22;9807;48.258;12.690;2022-07-22T14:28:47;32.60;99.90
19342;DHT22;9807;48.258;12.690;2022-07-22T14:31:13;32.70;99.90
19342;DHT22;9807;48.258;12.690;2022-07-22T14:33:38;32.80;99.90
19342;DHT22;9807;48.258;12.690;2022-07-22T14:36:04;32.90;99.90
19342;DHT22;9807;48.258;12.690;2022-07-22T14:38:30;33.00;99.90
19342;DHT22;9807;48.258;12.690;2022-07-22T14:40:55;33.00;99.90
19342;DHT22;9807;48.258;12.690;2022-07-22T14:43:21;33.10;99.90
19342;DHT22;9807;48.258;12.690;2022-07-22T14:45:47;33.10;99.90
19342;DHT22;9807;48.258;12.690;2022-07-22T14:48:13;33.10;99.90
19342;DHT22;9807;48.258;12.690;2022-07-22T14:50:38;33.10;99.90
19342;DHT22;9807;48.258;12.690;2022-07-22T14:53:04;33.00;99.90
19342;DHT22;9807;48.258;12.690;2022-07-22T14:55:30;32.90;99.90
19342;DHT22;9807;48.258;12.690;2022-07-22T14:57:55;32.80;99.90
19342;DHT22;9807;48.258;12.690;2022-07-22T15:00:21;32.90;99.90
19342;DHT22;9807;48.258;12.690;2022-07-22T15:02:47;33.20;99.90
19342;DHT22;9807;48.258;12.690;2022-07-22T15:05:13;33.40;99.90
19342;DHT22;9807;48.258;12.690;2022-07-22T15:07:39;33.40;99.90
19342;DHT22;9807;48.258;12.690;2022-07-22T15:10:06;33.30;99.90
19342;DHT22;9807;48.258;12.690;2022-07-22T15:12:32;33.20;99.90
19342;DHT22;9807;48.258;12.690;2022-07-22T15:14:58;33.30;99.90
19342;DHT22;9807;48.258;12.690;2022-07-22T15:17:27;33.20;99.90
19342;DHT22;9807;48.258;12.690;2022-07-22T15:19:53;33.30;99.90
19342;DHT22;9807;48.258;12.690;2022-07-22T15:22:19;33.40;99.90
19342;DHT22;9807;48.258;12.690;2022-07-22T15:24:45;33.60;99.90
19342;DHT22;9807;48.258;12.690;2022-07-22T15:27:11;33.60;99.90
19342;DHT22;9807;48.258;12.690;2022-07-22T15:29:37;33.50;99.90
19342;DHT22;9807;48.258;12.690;2022-07-22T15:32:03;33.40;99.90
19342;DHT22;9807;48.258;12.690;2022-07-22T15:34:32;33.40;99.90
19342;DHT22;9807;48.258;12.690;2022-07-22T15:36:58;33.50;99.90
19342;DHT22;9807;48.258;12.690;2022-07-22T15:39:24;33.60;99.90
19342;DHT22;9807;48.258;12.690;2022-07-22T15:41:50;33.60;99.90